createdAt,value
2018-09-19T00:02:22.315Z,100544.56
2018-09-19T00:07:19.726Z,100547.94
2018-09-19T00:12:17.163Z,100557.28
2018-09-19T00:17:14.566Z,100561.81
2018-09-19T00:22:11.974Z,100559.88
2018-09-19T00:27:09.386Z,100569.16
2018-09-19T00:32:06.912Z,100569.14
2018-09-19T00:37:04.311Z,100570.01
2018-09-19T00:42:01.741Z,100579.48
2018-09-19T00:46:59.142Z,100584.19
2018-09-19T00:51:56.634Z,100579.13
2018-09-19T00:56:54.002Z,100586.95
2018-09-19T01:01:51.620Z,100580.34
2018-09-19T01:06:49.016Z,100588.77
2018-09-19T01:11:46.455Z,100586.42
2018-09-19T01:16:43.845Z,100587.67
2018-09-19T01:21:41.226Z,100587.44
2018-09-19T01:26:38.615Z,100593.15
2018-09-19T01:31:36.070Z,100601.79
2018-09-19T01:36:33.477Z,100613.06
2018-09-19T01:41:30.946Z,100612.48
2018-09-19T01:46:28.307Z,100610.84
2018-09-19T01:51:25.695Z,100614.23
2018-09-19T01:56:23.075Z,100615.03
2018-09-19T02:01:20.452Z,100631.54
2018-09-19T02:06:17.859Z,100640.00
2018-09-19T02:11:15.279Z,100639.53
2018-09-19T02:16:12.674Z,100631.29
2018-09-19T02:21:10.072Z,100642.29
2018-09-19T02:26:07.457Z,100646.05
2018-09-19T02:31:04.850Z,100656.02
2018-09-19T02:36:02.238Z,100657.87
2018-09-19T02:40:59.652Z,100658.45
2018-09-19T02:45:57.041Z,100661.45
2018-09-19T02:50:54.452Z,100672.20
2018-09-19T02:55:51.856Z,100665.40
2018-09-19T03:00:49.244Z,100678.16
2018-09-19T03:05:46.620Z,100680.40
2018-09-19T03:10:44.047Z,100679.38
2018-09-19T03:15:41.471Z,100681.69
2018-09-19T03:20:38.888Z,100677.31
2018-09-19T03:25:36.379Z,100677.28
2018-09-19T03:30:33.786Z,100676.47
2018-09-19T03:35:31.653Z,100674.66
2018-09-19T03:40:29.049Z,100670.05
2018-09-19T03:45:26.459Z,100676.83
2018-09-19T03:50:23.849Z,100682.27
2018-09-19T03:55:21.232Z,100678.00
2018-09-19T04:00:18.649Z,100677.68
2018-09-19T04:05:16.050Z,100682.48
2018-09-19T04:10:14.560Z,100680.23
2018-09-19T04:15:12.031Z,100687.63
2018-09-19T04:20:09.416Z,100687.52
2018-09-19T04:25:06.891Z,100689.76
2018-09-19T04:30:04.429Z,100685.69
2018-09-19T04:35:01.858Z,100690.68
2018-09-19T04:40:01.001Z,100690.64
2018-09-19T04:44:58.467Z,100688.09
2018-09-19T04:49:55.833Z,100692.84
2018-09-19T04:54:53.239Z,100705.03
2018-09-19T04:59:50.932Z,100713.93
2018-09-19T05:04:48.347Z,100710.45
2018-09-19T05:09:50.404Z,100716.09
2018-09-19T05:14:47.791Z,100717.72
2018-09-19T05:19:45.179Z,100717.85
2018-09-19T05:24:42.605Z,100715.09
2018-09-19T05:29:40.003Z,100715.46
2018-09-19T05:34:37.547Z,100707.97
2018-09-19T05:39:42.676Z,100715.67
2018-09-19T05:44:40.122Z,100704.90
2018-09-19T05:49:37.603Z,100714.02
2018-09-19T05:54:36.029Z,100721.42
2018-09-19T05:59:33.466Z,100721.97
2018-09-19T06:04:30.841Z,100717.36
2018-09-19T06:09:37.956Z,100721.37
2018-09-19T06:14:35.729Z,100722.13
2018-09-19T06:19:33.143Z,100732.22
2018-09-19T06:24:30.536Z,100728.46
2018-09-19T06:29:28.049Z,100729.77
2018-09-19T06:34:25.451Z,100718.17
2018-09-19T06:39:33.632Z,100717.43
2018-09-19T06:44:31.154Z,100714.23
2018-09-19T06:49:28.592Z,100702.66
2018-09-19T06:54:26.019Z,100699.55
2018-09-19T06:59:23.507Z,100698.84
2018-09-19T07:04:20.932Z,100691.91
2018-09-19T07:09:26.883Z,100680.81
2018-09-19T07:14:24.373Z,100685.90
2018-09-19T07:19:21.857Z,100692.27
2018-09-19T07:24:19.281Z,100693.52
2018-09-19T07:29:16.676Z,100687.86
2018-09-19T07:34:14.074Z,100682.56
2018-09-19T07:39:14.846Z,100679.84
2018-09-19T07:44:12.267Z,100665.91
2018-09-19T07:49:09.702Z,100669.55
2018-09-19T07:54:07.159Z,100675.19
2018-09-19T07:59:04.572Z,100684.29
2018-09-19T08:04:01.995Z,100681.45
2018-09-19T08:08:59.409Z,100676.98
2018-09-19T08:13:56.841Z,100695.20
2018-09-19T08:18:54.302Z,100687.73
2018-09-19T08:23:51.716Z,100682.62
2018-09-19T08:28:49.468Z,100684.77
2018-09-19T08:33:47.045Z,100692.52
2018-09-19T08:38:44.475Z,100686.90
2018-09-19T08:43:41.915Z,100689.17
2018-09-19T08:48:39.466Z,100685.36
2018-09-19T08:53:36.883Z,100684.32
2018-09-19T08:58:34.307Z,100677.23
2018-09-19T09:03:32.555Z,100683.20
2018-09-19T09:08:29.955Z,100664.55
2018-09-19T09:13:27.428Z,100671.63
2018-09-19T09:18:24.804Z,100670.20
2018-09-19T09:23:22.249Z,100678.89
2018-09-19T09:28:19.619Z,100672.91
2018-09-19T09:33:17.016Z,100655.81
2018-09-19T09:38:14.415Z,100647.36
2018-09-19T09:43:11.868Z,100642.84
2018-09-19T09:48:09.300Z,100636.69
2018-09-19T09:53:06.764Z,100622.89
2018-09-19T09:58:04.120Z,100619.53
2018-09-19T10:03:01.520Z,100616.58
2018-09-19T10:07:58.915Z,100614.85
2018-09-19T10:12:56.614Z,100619.13
2018-09-19T10:17:54.003Z,100615.05
2018-09-19T10:22:51.431Z,100612.88
2018-09-19T10:27:48.815Z,100601.80
2018-09-19T10:32:46.216Z,100598.38
2018-09-19T10:37:43.629Z,100596.91
2018-09-19T10:42:41.055Z,100599.66
2018-09-19T10:47:38.472Z,100584.42
2018-09-19T10:52:35.858Z,100583.16
2018-09-19T10:57:33.286Z,100566.88
2018-09-19T11:02:30.703Z,100556.57
2018-09-19T11:07:28.115Z,100552.91
2018-09-19T11:12:25.578Z,100546.27
2018-09-19T11:17:22.988Z,100541.97
2018-09-19T11:22:20.405Z,100541.44
2018-09-19T11:27:17.823Z,100539.66
2018-09-19T11:32:15.220Z,100526.84
2018-09-19T11:37:12.632Z,100523.14
2018-09-19T11:42:10.096Z,100527.75
2018-09-19T11:47:07.524Z,100539.30
2018-09-19T11:52:04.973Z,100539.63
2018-09-19T11:57:02.359Z,100543.22
2018-09-19T12:01:59.881Z,100538.94
2018-09-19T12:06:57.277Z,100532.95
2018-09-19T12:11:54.739Z,100539.55
2018-09-19T12:16:52.152Z,100543.42
2018-09-19T12:21:49.815Z,100548.20
2018-09-19T12:26:47.248Z,100541.91
2018-09-19T12:31:44.691Z,100545.45
2018-09-19T12:36:42.139Z,100537.47
2018-09-19T12:41:39.911Z,100534.20
2018-09-19T12:46:37.415Z,100527.73
2018-09-19T12:51:34.919Z,100522.47
2018-09-19T12:56:32.431Z,100519.77
2018-09-19T13:01:29.894Z,100516.74
2018-09-19T13:06:27.333Z,100516.66
2018-09-19T13:11:24.804Z,100511.36
2018-09-19T13:16:22.298Z,100503.09
2018-09-19T13:21:19.755Z,100499.56
2018-09-19T13:26:17.194Z,100502.15
2018-09-19T13:31:14.601Z,100495.60
2018-09-19T13:36:12.038Z,100488.17
2018-09-19T13:41:09.676Z,100485.15
2018-09-19T13:46:07.519Z,100482.34
2018-09-19T13:51:17.951Z,100475.29
2018-09-19T13:56:15.360Z,100472.91
2018-09-19T14:01:12.954Z,100475.11
2018-09-19T14:06:10.367Z,100464.03
2018-09-19T14:11:07.839Z,100459.82
2018-09-19T14:16:06.155Z,100454.97
2018-09-19T14:21:03.587Z,100448.90
2018-09-19T14:26:00.999Z,100448.59
2018-09-19T14:30:58.411Z,100432.89
2018-09-19T14:35:55.924Z,100430.22
2018-09-19T14:40:53.303Z,100429.84
2018-09-19T14:45:50.709Z,100421.28
2018-09-19T14:50:48.106Z,100417.66
2018-09-19T14:55:45.519Z,100414.16
2018-09-19T15:00:42.929Z,100414.39
2018-09-19T15:05:40.344Z,100410.91
2018-09-19T15:10:37.791Z,100413.28
2018-09-19T15:15:35.291Z,100418.39
2018-09-19T15:20:32.707Z,100415.11
2018-09-19T15:25:30.210Z,100403.36
2018-09-19T15:30:27.608Z,100409.22
2018-09-19T15:35:25.026Z,100402.62
2018-09-19T15:40:23.516Z,100406.09
2018-09-19T15:45:20.945Z,100398.70
2018-09-19T15:50:18.372Z,100407.67
2018-09-19T15:55:15.794Z,100399.55
2018-09-19T16:00:13.326Z,100402.37
2018-09-19T16:05:12.231Z,100407.08
2018-09-19T16:10:10.756Z,100406.42
2018-09-19T16:15:08.156Z,100404.73
2018-09-19T16:20:05.594Z,100417.20
2018-09-19T16:25:03.068Z,100422.02
2018-09-19T16:30:00.467Z,100429.03
2018-09-19T16:34:57.867Z,100426.67
2018-09-19T16:39:56.395Z,100434.41
2018-09-19T16:44:53.809Z,100430.19
2018-09-19T16:49:51.283Z,100440.09
2018-09-19T16:54:48.710Z,100433.36
2018-09-19T16:59:51.620Z,100438.48
2018-09-19T17:04:51.803Z,100443.50
2018-09-19T17:09:56.000Z,100438.30
2018-09-19T17:14:53.397Z,100444.69
2018-09-19T17:19:52.131Z,100461.77
2018-09-19T17:24:52.760Z,100456.33
2018-09-19T17:29:52.385Z,100461.77
2018-09-19T17:34:58.508Z,100464.67
2018-09-19T17:40:04.333Z,100473.30
2018-09-19T17:45:06.092Z,100480.60
2018-09-19T17:50:10.723Z,100482.13
2018-09-19T17:55:10.992Z,100492.33
2018-09-19T18:00:10.703Z,100492.98
2018-09-19T18:05:10.357Z,100487.20
2018-09-19T18:10:10.505Z,100492.39
2018-09-19T18:15:09.809Z,100500.54
2018-09-19T18:20:12.362Z,100495.98
2018-09-19T18:25:11.013Z,100507.89
2018-09-19T18:30:10.407Z,100515.20
2018-09-19T18:35:11.509Z,100520.88
2018-09-19T18:40:14.563Z,100528.58
2018-09-19T18:45:13.217Z,100534.06
2018-09-19T18:50:11.870Z,100544.38
2018-09-19T18:55:11.231Z,100547.14
2018-09-19T19:00:11.558Z,100562.62
2018-09-19T19:05:09.406Z,100565.58
2018-09-19T19:10:15.936Z,100570.20
2018-09-19T19:15:17.556Z,100577.09
2018-09-19T19:20:22.306Z,100586.03
2018-09-19T19:25:28.418Z,100587.43
2018-09-19T19:30:35.838Z,100599.00
2018-09-19T19:35:40.962Z,100604.12
2018-09-19T19:40:44.383Z,100616.52
2018-09-19T19:45:45.917Z,100626.75
2018-09-19T19:50:48.472Z,100628.65
2018-09-19T19:55:54.794Z,100633.20
2018-09-19T20:00:56.391Z,100632.41
2018-09-19T20:06:03.701Z,100641.33
2018-09-19T20:11:06.620Z,100648.55
2018-09-19T20:16:08.006Z,100652.59
2018-09-19T20:21:07.619Z,100649.91
2018-09-19T20:26:09.090Z,100657.95
2018-09-19T20:31:11.379Z,100662.48
2018-09-19T20:36:14.005Z,100662.03
2018-09-19T20:41:17.584Z,100666.96
2018-09-19T20:46:18.415Z,100673.60
2018-09-19T20:51:21.161Z,100685.52
2018-09-19T20:56:21.277Z,100685.95
2018-09-19T21:01:22.264Z,100696.67
2018-09-19T21:06:25.686Z,100694.63
2018-09-19T21:11:23.228Z,100699.70
2018-09-19T21:16:25.871Z,100699.91
2018-09-19T21:21:28.444Z,100704.68
2018-09-19T21:26:34.372Z,100711.27
2018-09-19T21:31:39.238Z,100712.33
2018-09-19T21:36:41.341Z,100711.45
2018-09-19T21:41:42.353Z,100715.38
2018-09-19T21:46:42.515Z,100721.48
2018-09-19T21:51:42.911Z,100729.52
2018-09-19T21:56:41.861Z,100731.31
2018-09-19T22:01:40.683Z,100731.05
2018-09-19T22:06:39.360Z,100736.91
2018-09-19T22:11:36.990Z,100730.26
2018-09-19T22:16:34.402Z,100737.02
2018-09-19T22:21:31.859Z,100737.77
2018-09-19T22:26:29.235Z,100732.47
2018-09-19T22:31:26.871Z,100736.39
2018-09-19T22:36:24.260Z,100736.16
2018-09-19T22:41:21.877Z,100731.11
2018-09-19T22:46:19.338Z,100732.79
2018-09-19T22:51:16.768Z,100737.17
2018-09-19T22:56:14.479Z,100732.77
2018-09-19T23:01:11.863Z,100729.22
2018-09-19T23:06:09.247Z,100731.08
2018-09-19T23:11:06.703Z,100728.61
2018-09-19T23:16:04.111Z,100730.16
2018-09-19T23:21:01.491Z,100721.91
2018-09-19T23:25:58.908Z,100722.53
2018-09-19T23:30:56.374Z,100727.50
2018-09-19T23:35:53.775Z,100733.38
2018-09-19T23:40:51.195Z,100725.27
2018-09-19T23:45:48.677Z,100721.96
2018-09-19T23:50:46.071Z,100725.20
2018-09-19T23:55:43.453Z,100726.38
